Time;durP1;ratioP1;P1;durP2;ratioP2;P2;SDS_P1;SDS_P2;PMS_P1;PMS_P2;Temp;Humidity;BMP_temperature;BMP_pressure;BME280_temperature;BME280_humidity;BME280_pressure;Samples;Min_cycle;Max_cycle;Signal;HPM_P1;HPM_P2
2023/04/27 00:00:10;;;;;;;;;;;8.20;97.70;;;;;;4986839;28;19906;-74
2023/04/27 00:02:40;;;;;;;;;;;8.20;97.80;;;;;;4981240;28;19914;-75
2023/04/27 00:05:12;;;;;;;;;;;8.20;98.40;;;;;;4984988;28;20374;-75
2023/04/27 00:07:37;;;;;;;;;;;8.20;98.90;;;;;;4998710;28;19912;-75
2023/04/27 00:10:18;;;;;;;;;;;8.10;99.00;;;;;;4999495;28;19913;-75
2023/04/27 00:12:44;;;;;;;;;;;8.10;99.00;;;;;;4988437;28;19905;-75
2023/04/27 00:15:10;;;;;;;;;;;8.10;99.10;;;;;;4985242;28;19910;-75
2023/04/27 00:17:36;;;;;;;;;;;8.10;99.30;;;;;;5000310;28;19960;-75
2023/04/27 00:20:04;;;;;;;;;;;8.10;99.10;;;;;;5003699;28;19905;-75
2023/04/27 00:22:30;;;;;;;;;;;8.10;99.00;;;;;;5005777;28;19928;-75
2023/04/27 00:24:57;;;;;;;;;;;8.20;97.90;;;;;;4989721;28;19937;-75
2023/04/27 00:27:22;;;;;;;;;;;8.20;97.30;;;;;;4985904;28;20567;-75
2023/04/27 00:29:49;;;;;;;;;;;8.20;97.20;;;;;;4998822;28;19921;-75
2023/04/27 00:32:15;;;;;;;;;;;8.20;97.20;;;;;;4995785;28;20000;-75
2023/04/27 00:34:41;;;;;;;;;;;8.20;97.80;;;;;;4994244;28;19988;-75
2023/04/27 00:37:11;;;;;;;;;;;8.20;98.30;;;;;;5000558;28;20000;-76
2023/04/27 00:39:39;;;;;;;;;;;8.20;98.50;;;;;;5003067;28;19976;-75
2023/04/27 00:42:12;;;;;;;;;;;8.10;98.50;;;;;;4999553;28;19920;-75
2023/04/27 00:44:39;;;;;;;;;;;8.10;98.30;;;;;;5005926;28;20347;-74
2023/04/27 00:47:05;;;;;;;;;;;8.10;98.40;;;;;;4981576;28;19910;-74
2023/04/27 00:49:32;;;;;;;;;;;8.00;98.50;;;;;;4989356;28;19912;-75
2023/04/27 00:51:59;;;;;;;;;;;8.00;98.60;;;;;;4998634;28;20021;-75
2023/04/27 00:54:25;;;;;;;;;;;8.00;98.10;;;;;;4999045;28;20394;-75
2023/04/27 00:56:51;;;;;;;;;;;8.00;98.00;;;;;;4999098;28;19909;-75
2023/04/27 00:59:19;;;;;;;;;;;7.90;98.40;;;;;;5001811;28;19996;-75
2023/04/27 01:01:45;;;;;;;;;;;7.90;98.50;;;;;;4983112;28;19948;-75
2023/04/27 01:04:11;;;;;;;;;;;7.80;98.50;;;;;;4996000;28;20421;-75
2023/04/27 01:06:38;;;;;;;;;;;7.70;98.50;;;;;;5000852;28;19997;-75
2023/04/27 01:09:04;;;;;;;;;;;7.70;98.60;;;;;;4999992;28;21292;-75
2023/04/27 01:11:30;;;;;;;;;;;7.70;98.20;;;;;;4980127;28;19953;-75
2023/04/27 01:14:01;;;;;;;;;;;7.70;98.10;;;;;;4977116;28;20327;-75
2023/04/27 01:16:28;;;;;;;;;;;7.70;97.80;;;;;;4996107;28;20351;-75
2023/04/27 01:18:54;;;;;;;;;;;7.60;97.90;;;;;;4986115;28;19905;-75
2023/04/27 01:21:21;;;;;;;;;;;7.60;98.00;;;;;;4999419;28;19905;-75
2023/04/27 01:23:47;;;;;;;;;;;7.60;97.80;;;;;;4984818;28;20248;-75
2023/04/27 01:26:15;;;;;;;;;;;7.50;98.10;;;;;;4984034;28;19906;-75
2023/04/27 01:28:41;;;;;;;;;;;7.50;98.30;;;;;;5000784;28;19953;-75
2023/04/27 01:31:07;;;;;;;;;;;7.40;98.40;;;;;;4981691;28;19909;-75
2023/04/27 01:33:35;;;;;;;;;;;7.40;98.00;;;;;;4993493;28;19921;-75
2023/04/27 01:36:02;;;;;;;;;;;7.30;98.20;;;;;;5003094;28;20048;-75
2023/04/27 01:38:38;;;;;;;;;;;7.30;98.40;;;;;;4998720;28;19913;-75
2023/04/27 01:41:07;;;;;;;;;;;7.20;98.60;;;;;;4997951;28;19913;-75
2023/04/27 01:43:40;;;;;;;;;;;7.10;98.60;;;;;;4981001;28;19920;-75
2023/04/27 01:46:09;;;;;;;;;;;7.10;98.70;;;;;;4999541;28;19916;-75
2023/04/27 01:48:35;;;;;;;;;;;7.00;98.80;;;;;;4976881;28;19913;-75
2023/04/27 01:51:03;;;;;;;;;;;7.00;99.30;;;;;;4986917;28;19916;-75
2023/04/27 01:53:36;;;;;;;;;;;7.00;99.80;;;;;;4998637;28;19913;-75
2023/04/27 01:56:05;;;;;;;;;;;6.90;99.80;;;;;;4999927;28;19933;-75
2023/04/27 01:58:32;;;;;;;;;;;6.90;99.50;;;;;;4981307;28;20448;-75
2023/04/27 02:01:03;;;;;;;;;;;6.90;99.90;;;;;;4980482;28;19916;-75
2023/04/27 02:03:28;;;;;;;;;;;6.90;99.80;;;;;;5000002;28;19915;-74
2023/04/27 02:05:56;;;;;;;;;;;6.80;99.50;;;;;;4982500;28;19917;-75
2023/04/27 02:08:23;;;;;;;;;;;6.70;99.70;;;;;;4980993;28;19992;-75
2023/04/27 02:10:51;;;;;;;;;;;6.60;99.90;;;;;;4998635;28;19952;-75
2023/04/27 02:13:18;;;;;;;;;;;6.70;99.90;;;;;;5003783;28;19917;-75
2023/04/27 02:15:43;;;;;;;;;;;6.60;99.90;;;;;;4993400;28;19901;-76
2023/04/27 02:18:10;;;;;;;;;;;6.60;99.90;;;;;;4998635;28;19916;-75
2023/04/27 02:20:36;;;;;;;;;;;6.60;99.90;;;;;;4995047;28;19909;-75
2023/04/27 02:23:05;;;;;;;;;;;6.50;99.90;;;;;;4982115;28;19959;-75
2023/04/27 02:25:35;;;;;;;;;;;6.40;99.90;;;;;;4997314;28;19905;-75
2023/04/27 02:28:01;;;;;;;;;;;6.30;99.90;;;;;;4997745;28;19913;-75
2023/04/27 02:30:33;;;;;;;;;;;6.30;99.90;;;;;;4999343;28;19909;-74
2023/04/27 02:32:59;;;;;;;;;;;6.30;99.90;;;;;;4997811;28;19960;-75
2023/04/27 02:35:25;;;;;;;;;;;6.20;99.90;;;;;;4980315;28;20746;-75
2023/04/27 02:37:53;;;;;;;;;;;6.10;99.90;;;;;;5003542;28;19915;-76
2023/04/27 02:40:18;;;;;;;;;;;6.00;99.90;;;;;;4979761;28;19959;-75
2023/04/27 02:42:51;;;;;;;;;;;6.00;99.90;;;;;;4997865;28;19913;-74
2023/04/27 02:45:18;;;;;;;;;;;5.90;99.90;;;;;;4994295;28;19914;-75
2023/04/27 02:47:45;;;;;;;;;;;5.90;99.90;;;;;;4985078;28;19910;-75
2023/04/27 02:50:12;;;;;;;;;;;5.80;99.90;;;;;;4983942;28;19905;-75
2023/04/27 02:52:40;;;;;;;;;;;5.80;99.90;;;;;;5000544;28;20112;-75
2023/04/27 02:55:05;;;;;;;;;;;5.70;99.90;;;;;;4997324;28;19912;-75
2023/04/27 02:57:31;;;;;;;;;;;5.80;99.90;;;;;;4987308;28;19909;-75
2023/04/27 02:59:58;;;;;;;;;;;5.80;99.90;;;;;;4999782;28;19909;-76
2023/04/27 03:02:25;;;;;;;;;;;5.80;99.90;;;;;;5004530;28;19905;-75
2023/04/27 03:04:52;;;;;;;;;;;5.80;99.90;;;;;;4983670;28;20522;-74
2023/04/27 03:07:20;;;;;;;;;;;5.80;99.90;;;;;;4985667;28;19913;-74
2023/04/27 03:09:52;;;;;;;;;;;5.80;99.90;;;;;;4997120;28;19935;-75
2023/04/27 03:12:19;;;;;;;;;;;5.80;99.90;;;;;;5000835;28;20177;-75
2023/04/27 03:14:45;;;;;;;;;;;5.90;99.90;;;;;;4982237;28;19912;-74
2023/04/27 03:17:12;;;;;;;;;;;5.80;99.90;;;;;;4987712;28;19909;-75
2023/04/27 03:19:37;;;;;;;;;;;5.80;99.90;;;;;;4978978;28;19912;-75
2023/04/27 03:22:05;;;;;;;;;;;5.80;99.90;;;;;;4977772;28;19913;-75
2023/04/27 03:24:33;;;;;;;;;;;5.80;99.90;;;;;;4984374;28;19905;-75
2023/04/27 03:27:01;;;;;;;;;;;5.80;99.90;;;;;;4980474;28;19913;-74
2023/04/27 03:29:26;;;;;;;;;;;5.80;99.90;;;;;;5000609;28;19917;-75
2023/04/27 03:31:55;;;;;;;;;;;5.80;99.90;;;;;;4983808;28;19906;-75
2023/04/27 03:34:22;;;;;;;;;;;5.80;99.90;;;;;;4999821;28;19906;-75
2023/04/27 03:36:49;;;;;;;;;;;5.80;99.90;;;;;;4981545;28;20036;-74
2023/04/27 03:39:18;;;;;;;;;;;5.80;99.90;;;;;;4987362;28;19906;-75
2023/04/27 03:41:43;;;;;;;;;;;5.80;99.90;;;;;;5003035;28;19906;-76
2023/04/27 03:44:18;;;;;;;;;;;5.80;99.90;;;;;;5000293;28;20581;-75
2023/04/27 03:46:43;;;;;;;;;;;5.80;99.90;;;;;;5003860;28;19927;-75
2023/04/27 03:49:11;;;;;;;;;;;5.90;99.90;;;;;;4990815;28;20362;-76
2023/04/27 03:51:41;;;;;;;;;;;5.90;99.90;;;;;;5006523;28;19910;-75
2023/04/27 03:54:09;;;;;;;;;;;5.90;99.90;;;;;;4986466;28;19956;-75
2023/04/27 03:56:37;;;;;;;;;;;6.00;99.90;;;;;;5005613;28;20005;-75
2023/04/27 03:59:09;;;;;;;;;;;6.00;99.90;;;;;;5002165;28;19913;-75
2023/04/27 04:01:38;;;;;;;;;;;6.10;99.90;;;;;;5003269;28;20612;-75
2023/04/27 04:04:10;;;;;;;;;;;6.10;99.90;;;;;;5002550;28;20636;-76
2023/04/27 04:06:38;;;;;;;;;;;6.20;99.90;;;;;;5007913;28;19914;-75
2023/04/27 04:09:04;;;;;;;;;;;6.20;99.90;;;;;;4985484;28;20363;-75
2023/04/27 04:11:30;;;;;;;;;;;6.30;99.90;;;;;;5003943;28;19952;-75
2023/04/27 04:13:58;;;;;;;;;;;6.40;99.90;;;;;;4981729;28;19944;-75
2023/04/27 04:16:24;;;;;;;;;;;6.50;99.90;;;;;;4994895;28;19905;-74
2023/04/27 04:18:51;;;;;;;;;;;6.60;99.90;;;;;;4981362;28;20369;-74
2023/04/27 04:21:18;;;;;;;;;;;6.60;99.90;;;;;;4989916;28;19906;-75
2023/04/27 04:23:47;;;;;;;;;;;6.70;99.90;;;;;;4986231;28;19949;-75
2023/04/27 04:26:19;;;;;;;;;;;6.90;99.90;;;;;;4984959;28;19905;-76
2023/04/27 04:28:45;;;;;;;;;;;7.00;99.90;;;;;;4983546;28;19920;-74
2023/04/27 04:31:13;;;;;;;;;;;7.20;99.90;;;;;;5001908;28;19909;-74
2023/04/27 04:33:39;;;;;;;;;;;7.50;99.90;;;;;;4981840;28;19996;-74
2023/04/27 04:36:06;;;;;;;;;;;7.90;99.20;;;;;;4986510;28;20004;-75
2023/04/27 04:38:32;;;;;;;;;;;8.40;97.70;;;;;;5005772;28;20347;-74
2023/04/27 04:40:58;;;;;;;;;;;8.80;96.70;;;;;;5000044;28;19913;-74
2023/04/27 04:43:23;;;;;;;;;;;9.00;97.20;;;;;;5005693;28;19905;-74
2023/04/27 04:45:51;;;;;;;;;;;9.40;97.50;;;;;;4986184;28;19914;-74
2023/04/27 04:48:17;;;;;;;;;;;9.70;96.40;;;;;;4991378;28;19937;-75
2023/04/27 04:50:43;;;;;;;;;;;10.30;95.60;;;;;;4986280;28;19945;-74
2023/04/27 04:53:15;;;;;;;;;;;10.80;93.90;;;;;;5001201;28;19916;-74
2023/04/27 04:55:41;;;;;;;;;;;11.10;92.30;;;;;;4994471;28;20378;-75
2023/04/27 04:58:10;;;;;;;;;;;10.80;91.90;;;;;;4985210;28;19909;-75
2023/04/27 05:00:35;;;;;;;;;;;10.60;91.60;;;;;;4999543;28;20459;-74
2023/04/27 05:03:01;;;;;;;;;;;10.50;88.20;;;;;;4987709;28;19905;-74
2023/04/27 05:05:27;;;;;;;;;;;10.30;84.40;;;;;;4998649;28;19909;-74
2023/04/27 05:07:53;;;;;;;;;;;10.10;86.70;;;;;;5001796;28;19912;-73
2023/04/27 05:10:20;;;;;;;;;;;10.00;86.40;;;;;;4985393;28;19914;-74
2023/04/27 05:12:49;;;;;;;;;;;10.20;85.30;;;;;;5002279;28;19909;-74
2023/04/27 05:15:15;;;;;;;;;;;10.40;84.00;;;;;;5001324;28;19906;-74
2023/04/27 05:17:41;;;;;;;;;;;10.40;83.00;;;;;;4995157;28;19916;-75
2023/04/27 05:20:07;;;;;;;;;;;10.30;83.40;;;;;;4987640;28;19906;-75
2023/04/27 05:22:33;;;;;;;;;;;10.10;84.10;;;;;;4980826;28;19913;-75
2023/04/27 05:25:08;;;;;;;;;;;9.90;84.20;;;;;;4982514;28;19936;-74
2023/04/27 05:27:35;;;;;;;;;;;9.90;84.90;;;;;;4983604;28;19909;-74
2023/04/27 05:30:04;;;;;;;;;;;10.00;85.90;;;;;;4983435;28;19920;-75
2023/04/27 05:32:34;;;;;;;;;;;10.20;86.00;;;;;;5000916;28;19905;-75
2023/04/27 05:35:00;;;;;;;;;;;10.20;86.10;;;;;;4980430;28;19940;-74
2023/04/27 05:37:26;;;;;;;;;;;10.10;88.00;;;;;;4985176;28;19952;-73
2023/04/27 05:39:51;;;;;;;;;;;10.00;90.40;;;;;;4995386;28;20375;-72
2023/04/27 05:42:17;;;;;;;;;;;10.00;90.10;;;;;;5001619;28;19912;-75
2023/04/27 05:44:45;;;;;;;;;;;10.10;90.00;;;;;;4980942;28;20004;-75
2023/04/27 05:47:11;;;;;;;;;;;10.30;90.00;;;;;;4998906;28;19916;-75
2023/04/27 05:49:37;;;;;;;;;;;10.40;87.40;;;;;;4999252;28;20995;-75
2023/04/27 05:52:04;;;;;;;;;;;10.60;85.10;;;;;;4982536;28;20019;-75
2023/04/27 05:54:31;;;;;;;;;;;10.90;84.30;;;;;;4998535;28;20373;-75
2023/04/27 05:57:00;;;;;;;;;;;10.80;84.00;;;;;;4984131;28;19914;-75
2023/04/27 05:59:32;;;;;;;;;;;10.80;83.10;;;;;;4998953;28;19915;-75
2023/04/27 06:01:59;;;;;;;;;;;11.30;82.10;;;;;;5002967;28;19905;-76
2023/04/27 06:04:25;;;;;;;;;;;11.60;81.30;;;;;;4993933;28;19906;-75
2023/04/27 06:06:52;;;;;;;;;;;12.00;80.20;;;;;;4981334;28;19913;-75
2023/04/27 06:09:18;;;;;;;;;;;13.00;78.30;;;;;;4985397;28;19905;-75
2023/04/27 06:11:46;;;;;;;;;;;13.20;76.20;;;;;;4998412;28;20036;-75
2023/04/27 06:14:15;;;;;;;;;;;13.10;74.40;;;;;;4980821;28;19909;-76
2023/04/27 06:16:42;;;;;;;;;;;13.30;74.30;;;;;;4980811;28;20407;-76
2023/04/27 06:19:14;;;;;;;;;;;13.50;73.70;;;;;;4999178;28;19910;-75
2023/04/27 06:21:44;;;;;;;;;;;13.30;74.00;;;;;;4986845;28;19913;-77
2023/04/27 06:24:10;;;;;;;;;;;13.70;73.50;;;;;;4980174;28;20243;-76
2023/04/27 06:26:42;;;;;;;;;;;14.20;73.20;;;;;;5000009;28;19917;-76
2023/04/27 06:29:08;;;;;;;;;;;14.90;72.30;;;;;;4999576;28;19914;-76
2023/04/27 06:31:35;;;;;;;;;;;14.90;70.80;;;;;;4986905;28;19913;-75
2023/04/27 06:34:00;;;;;;;;;;;14.00;70.00;;;;;;4982043;28;19906;-76
2023/04/27 06:36:27;;;;;;;;;;;13.70;72.10;;;;;;4982387;28;19916;-75
2023/04/27 06:38:57;;;;;;;;;;;14.00;72.10;;;;;;4986492;28;19917;-76
2023/04/27 06:41:23;;;;;;;;;;;14.10;72.20;;;;;;4983941;28;19914;-75
2023/04/27 06:43:49;;;;;;;;;;;14.30;71.70;;;;;;5002124;28;19913;-77
2023/04/27 06:46:14;;;;;;;;;;;14.30;71.90;;;;;;5003415;28;19916;-77
2023/04/27 06:48:43;;;;;;;;;;;14.60;70.30;;;;;;4984610;28;20343;-76
2023/04/27 06:51:11;;;;;;;;;;;15.10;69.20;;;;;;4983171;28;19945;-76
2023/04/27 06:53:38;;;;;;;;;;;15.50;67.70;;;;;;4981151;28;19909;-76
2023/04/27 06:56:06;;;;;;;;;;;16.20;65.50;;;;;;5000045;28;19920;-75
2023/04/27 06:58:31;;;;;;;;;;;16.60;65.20;;;;;;4981590;28;19970;-75
2023/04/27 07:00:57;;;;;;;;;;;16.50;63.60;;;;;;4980211;28;19959;-76
2023/04/27 07:03:22;;;;;;;;;;;17.10;63.80;;;;;;4999269;28;19905;-75
2023/04/27 07:05:52;;;;;;;;;;;17.00;62.20;;;;;;4983988;28;19928;-75
2023/04/27 07:08:25;;;;;;;;;;;17.50;62.80;;;;;;4994991;28;19909;-75
2023/04/27 07:10:52;;;;;;;;;;;17.80;61.00;;;;;;4996507;28;19952;-75
2023/04/27 07:13:19;;;;;;;;;;;17.60;60.90;;;;;;4981786;28;20359;-75
2023/04/27 07:15:46;;;;;;;;;;;18.00;58.20;;;;;;4998649;28;19987;-74
2023/04/27 07:18:12;;;;;;;;;;;18.00;58.40;;;;;;4979774;28;20021;-74
2023/04/27 07:20:43;;;;;;;;;;;17.60;57.70;;;;;;4999233;28;20434;-75
2023/04/27 07:23:10;;;;;;;;;;;17.50;58.90;;;;;;4996644;28;19992;-75
2023/04/27 07:25:36;;;;;;;;;;;17.40;59.30;;;;;;5002585;28;19906;-75
2023/04/27 07:28:01;;;;;;;;;;;17.20;58.40;;;;;;4994550;28;20113;-76
2023/04/27 07:30:36;;;;;;;;;;;17.30;59.20;;;;;;4998261;28;19968;-76
2023/04/27 07:33:01;;;;;;;;;;;17.10;57.50;;;;;;4997924;28;19996;-76
2023/04/27 07:35:27;;;;;;;;;;;17.00;56.40;;;;;;4996292;28;19996;-75
2023/04/27 07:37:55;;;;;;;;;;;16.40;57.30;;;;;;5001749;28;19918;-75
2023/04/27 07:40:23;;;;;;;;;;;15.80;55.20;;;;;;4975144;28;20591;-75
2023/04/27 07:42:48;;;;;;;;;;;15.00;57.70;;;;;;4997615;28;20552;-75
2023/04/27 07:45:16;;;;;;;;;;;14.70;57.90;;;;;;4998466;28;19960;-75
2023/04/27 07:47:42;;;;;;;;;;;14.70;59.20;;;;;;4986855;28;19912;-76
2023/04/27 07:50:09;;;;;;;;;;;15.10;58.00;;;;;;4991567;28;19940;-75
2023/04/27 07:52:37;;;;;;;;;;;15.40;57.90;;;;;;4981180;28;20330;-75
2023/04/27 07:55:03;;;;;;;;;;;15.70;56.60;;;;;;4991189;28;19914;-76
2023/04/27 07:57:32;;;;;;;;;;;15.70;57.80;;;;;;4996503;28;19913;-75
2023/04/27 08:00:03;;;;;;;;;;;16.20;57.50;;;;;;4979802;28;19977;-75
2023/04/27 08:02:30;;;;;;;;;;;16.40;56.50;;;;;;4998440;28;19909;-75
2023/04/27 08:04:57;;;;;;;;;;;16.10;55.50;;;;;;4996635;28;20553;-74
2023/04/27 08:07:25;;;;;;;;;;;15.70;56.60;;;;;;5000790;28;19963;-75
2023/04/27 08:09:51;;;;;;;;;;;15.40;56.90;;;;;;4985660;28;20278;-75
2023/04/27 08:12:18;;;;;;;;;;;15.70;57.20;;;;;;4984470;28;19937;-75
2023/04/27 08:14:45;;;;;;;;;;;15.90;56.50;;;;;;4978258;28;19906;-75
2023/04/27 08:17:17;;;;;;;;;;;16.50;56.40;;;;;;4996824;28;19909;-76
2023/04/27 08:19:50;;;;;;;;;;;16.40;53.70;;;;;;4995499;28;19996;-75
2023/04/27 08:22:17;;;;;;;;;;;16.40;53.80;;;;;;4998982;28;19910;-75
2023/04/27 08:24:42;;;;;;;;;;;16.90;52.70;;;;;;5000564;28;19941;-76
2023/04/27 08:27:10;;;;;;;;;;;17.20;52.60;;;;;;5001799;28;19995;-75
2023/04/27 08:29:36;;;;;;;;;;;16.90;52.10;;;;;;4982292;28;19913;-76
2023/04/27 08:32:04;;;;;;;;;;;17.10;51.90;;;;;;5000352;28;19909;-76
2023/04/27 08:34:34;;;;;;;;;;;17.60;51.40;;;;;;4987424;28;19917;-77
2023/04/27 08:37:03;;;;;;;;;;;17.80;51.10;;;;;;5001474;28;19910;-76
2023/04/27 08:39:29;;;;;;;;;;;18.20;50.60;;;;;;5002019;28;19912;-75
2023/04/27 08:41:55;;;;;;;;;;;18.10;50.30;;;;;;4988919;28;20410;-76
2023/04/27 08:44:35;;;;;;;;;;;18.30;50.60;;;;;;4999486;28;19913;-75
2023/04/27 08:47:03;;;;;;;;;;;18.40;49.20;;;;;;4989269;28;19909;-75
2023/04/27 08:49:30;;;;;;;;;;;18.30;50.60;;;;;;5000513;28;19944;-75
2023/04/27 08:52:01;;;;;;;;;;;17.90;48.80;;;;;;4998394;28;19905;-75
2023/04/27 08:54:34;;;;;;;;;;;18.50;50.90;;;;;;5002128;28;20471;-75
2023/04/27 08:57:02;;;;;;;;;;;19.10;49.80;;;;;;5001488;28;19910;-76
2023/04/27 08:59:35;;;;;;;;;;;19.80;47.50;;;;;;5005955;28;19956;-75
2023/04/27 09:02:16;;;;;;;;;;;20.40;47.80;;;;;;5006088;28;19913;-75
2023/04/27 09:04:51;;;;;;;;;;;20.70;46.90;;;;;;4999206;28;20347;-76
2023/04/27 09:07:19;;;;;;;;;;;20.80;46.40;;;;;;5000097;28;19906;-75
2023/04/27 09:09:47;;;;;;;;;;;20.70;45.90;;;;;;5001235;28;19909;-76
2023/04/27 09:12:20;;;;;;;;;;;21.00;46.10;;;;;;4982311;28;19912;-76
2023/04/27 09:14:58;;;;;;;;;;;20.80;46.80;;;;;;4981258;28;19909;-76
2023/04/27 09:17:27;;;;;;;;;;;21.00;45.30;;;;;;4999913;28;19952;-75
2023/04/27 09:20:06;;;;;;;;;;;19.70;47.00;;;;;;4983254;28;19909;-75
2023/04/27 09:22:41;;;;;;;;;;;20.40;46.60;;;;;;4999009;28;19914;-76
2023/04/27 09:25:06;;;;;;;;;;;20.40;46.10;;;;;;5000037;28;19931;-76
2023/04/27 09:27:38;;;;;;;;;;;21.00;45.40;;;;;;5000505;28;20559;-76
2023/04/27 09:30:13;;;;;;;;;;;21.50;45.10;;;;;;5000397;28;19917;-75
2023/04/27 09:32:55;;;;;;;;;;;21.60;43.50;;;;;;4985475;28;19920;-76
2023/04/27 09:35:22;;;;;;;;;;;22.30;43.80;;;;;;4989941;28;19913;-74
2023/04/27 09:37:51;;;;;;;;;;;22.60;43.50;;;;;;4986099;28;19912;-74
2023/04/27 09:40:25;;;;;;;;;;;23.30;42.80;;;;;;4982778;28;20026;-75
2023/04/27 09:43:02;;;;;;;;;;;23.60;41.60;;;;;;4980468;28;19917;-76
2023/04/27 09:45:28;;;;;;;;;;;23.10;41.20;;;;;;5000338;28;19910;-76
2023/04/27 09:47:55;;;;;;;;;;;21.70;43.10;;;;;;4980818;28;19906;-76
2023/04/27 09:50:20;;;;;;;;;;;20.40;45.20;;;;;;4988894;28;19964;-75
2023/04/27 09:52:48;;;;;;;;;;;20.80;45.60;;;;;;4998537;28;19914;-76
2023/04/27 09:55:15;;;;;;;;;;;21.00;44.30;;;;;;4999587;28;19945;-75
2023/04/27 09:57:52;;;;;;;;;;;20.20;45.20;;;;;;4981400;28;19952;-76
2023/04/27 10:00:26;;;;;;;;;;;21.20;43.90;;;;;;4981570;28;19920;-76
2023/04/27 10:02:58;;;;;;;;;;;20.80;44.50;;;;;;4993035;28;20371;-75
2023/04/27 10:05:32;;;;;;;;;;;20.30;45.90;;;;;;4999270;28;19912;-76
2023/04/27 10:07:57;;;;;;;;;;;20.40;45.70;;;;;;4996628;28;19909;-75
2023/04/27 10:10:23;;;;;;;;;;;20.50;45.90;;;;;;5000170;28;19912;-74
2023/04/27 10:12:56;;;;;;;;;;;20.70;45.00;;;;;;4998113;28;19906;-75
2023/04/27 10:15:25;;;;;;;;;;;20.80;45.30;;;;;;4978439;28;19920;-76
2023/04/27 10:18:04;;;;;;;;;;;21.00;45.00;;;;;;4997876;28;19924;-76
2023/04/27 10:20:40;;;;;;;;;;;22.20;44.10;;;;;;4983503;28;19905;-75
2023/04/27 10:23:06;;;;;;;;;;;21.00;44.40;;;;;;4980505;28;19960;-75
2023/04/27 10:25:45;;;;;;;;;;;20.50;44.90;;;;;;4980952;28;19905;-76
2023/04/27 10:28:16;;;;;;;;;;;20.10;45.80;;;;;;4977875;28;19909;-76
2023/04/27 10:30:47;;;;;;;;;;;21.40;45.60;;;;;;4983218;28;20298;-76
2023/04/27 10:33:15;;;;;;;;;;;22.40;43.80;;;;;;4980031;28;19905;-75
2023/04/27 10:35:41;;;;;;;;;;;21.90;44.10;;;;;;4981799;28;19905;-75
2023/04/27 10:38:08;;;;;;;;;;;22.20;44.10;;;;;;4996404;28;19913;-74
2023/04/27 10:40:35;;;;;;;;;;;21.70;44.10;;;;;;4995216;28;19913;-76
2023/04/27 10:43:16;;;;;;;;;;;18.90;46.10;;;;;;4996933;28;19910;-79
2023/04/27 10:45:45;;;;;;;;;;;18.70;47.30;;;;;;4978109;28;19964;-79
2023/04/27 10:48:14;;;;;;;;;;;18.50;47.30;;;;;;4998153;28;19913;-79
2023/04/27 10:50:40;;;;;;;;;;;18.60;47.50;;;;;;4980360;28;19910;-72
2023/04/27 10:53:07;;;;;;;;;;;17.90;47.70;;;;;;4984382;28;19905;-72
2023/04/27 10:55:33;;;;;;;;;;;17.40;48.00;;;;;;4979295;28;19913;-73
2023/04/27 10:58:00;;;;;;;;;;;17.00;48.90;;;;;;5001482;28;19913;-72
2023/04/27 11:00:26;;;;;;;;;;;17.50;48.50;;;;;;4998156;28;19913;-73
2023/04/27 11:02:52;;;;;;;;;;;17.50;48.00;;;;;;4980627;28;19906;-73
2023/04/27 11:05:21;;;;;;;;;;;16.80;49.10;;;;;;4983251;28;19909;-73
2023/04/27 11:07:47;;;;;;;;;;;15.80;50.30;;;;;;5000659;28;19920;-73
2023/04/27 11:10:17;;;;;;;;;;;15.70;50.90;;;;;;4981014;28;19906;-73
2023/04/27 11:12:44;;;;;;;;;;;15.70;51.80;;;;;;5001188;28;20350;-73
2023/04/27 11:15:12;;;;;;;;;;;15.60;52.20;;;;;;4996338;28;19909;-73
2023/04/27 11:17:38;;;;;;;;;;;15.90;51.90;;;;;;4980325;28;19948;-72
2023/04/27 11:20:07;;;;;;;;;;;15.80;52.00;;;;;;4994713;28;20335;-73
2023/04/27 11:22:33;;;;;;;;;;;16.10;51.40;;;;;;4998893;28;20560;-74
2023/04/27 11:24:59;;;;;;;;;;;16.80;50.00;;;;;;5001535;28;19916;-73
2023/04/27 11:27:35;;;;;;;;;;;16.40;51.10;;;;;;4999399;28;19909;-74
2023/04/27 11:30:01;;;;;;;;;;;17.00;49.80;;;;;;4996798;28;19917;-73
2023/04/27 11:32:26;;;;;;;;;;;17.90;49.80;;;;;;4983821;28;19909;-74
2023/04/27 11:34:53;;;;;;;;;;;18.30;50.00;;;;;;4998043;28;19959;-74
2023/04/27 11:37:25;;;;;;;;;;;18.60;48.40;;;;;;4980502;28;19917;-74
2023/04/27 11:39:52;;;;;;;;;;;19.00;48.10;;;;;;4987605;28;19909;-74
2023/04/27 11:42:23;;;;;;;;;;;19.20;48.10;;;;;;4980214;28;19909;-74
2023/04/27 11:44:52;;;;;;;;;;;19.50;48.20;;;;;;4996136;28;19991;-74
2023/04/27 11:47:20;;;;;;;;;;;19.20;47.40;;;;;;4998533;28;19910;-74
2023/04/27 11:49:47;;;;;;;;;;;18.30;48.90;;;;;;4981152;28;19909;-73
2023/04/27 11:52:14;;;;;;;;;;;17.20;49.80;;;;;;4997174;28;19952;-73
2023/04/27 11:54:50;;;;;;;;;;;16.70;50.50;;;;;;4992301;28;19916;-73
2023/04/27 11:57:16;;;;;;;;;;;15.90;51.50;;;;;;4997667;28;19913;-73
2023/04/27 11:59:43;;;;;;;;;;;15.80;52.00;;;;;;5002450;28;19917;-73
2023/04/27 12:02:09;;;;;;;;;;;15.50;51.90;;;;;;5000566;28;20687;-74
2023/04/27 12:04:35;;;;;;;;;;;16.10;51.90;;;;;;4983990;28;19913;-74
2023/04/27 12:07:03;;;;;;;;;;;16.50;51.70;;;;;;4984522;28;19909;-74
2023/04/27 12:09:29;;;;;;;;;;;16.50;51.30;;;;;;4999609;28;19968;-72
2023/04/27 12:11:56;;;;;;;;;;;16.40;52.00;;;;;;5004991;28;19912;-73
2023/04/27 12:14:23;;;;;;;;;;;16.10;50.90;;;;;;4980612;28;19909;-73
2023/04/27 12:16:52;;;;;;;;;;;16.10;51.50;;;;;;4989522;28;19944;-74
2023/04/27 12:19:18;;;;;;;;;;;16.30;51.90;;;;;;4981596;28;19905;-74
2023/04/27 12:21:44;;;;;;;;;;;16.10;52.90;;;;;;5000703;28;19992;-74
2023/04/27 12:24:10;;;;;;;;;;;16.70;52.40;;;;;;4986878;28;20035;-73
2023/04/27 12:26:37;;;;;;;;;;;17.10;51.30;;;;;;4981622;28;19909;-73
2023/04/27 12:29:03;;;;;;;;;;;17.10;51.60;;;;;;5004865;28;20519;-73
2023/04/27 12:31:29;;;;;;;;;;;16.60;51.30;;;;;;4999756;28;19944;-74
2023/04/27 12:33:56;;;;;;;;;;;16.10;51.40;;;;;;5000924;28;19947;-74
2023/04/27 12:36:22;;;;;;;;;;;16.30;51.90;;;;;;4999503;28;19905;-73
2023/04/27 12:38:48;;;;;;;;;;;16.90;52.20;;;;;;4986817;28;19913;-73
2023/04/27 12:41:15;;;;;;;;;;;17.00;51.30;;;;;;5000304;28;19909;-73
2023/04/27 12:43:42;;;;;;;;;;;17.10;52.30;;;;;;4982303;28;19909;-72
2023/04/27 12:46:07;;;;;;;;;;;17.40;48.80;;;;;;4976968;28;20372;-72
2023/04/27 12:48:33;;;;;;;;;;;17.60;47.50;;;;;;5000204;28;19913;-74
2023/04/27 12:50:59;;;;;;;;;;;18.00;46.70;;;;;;4999438;28;19914;-74
2023/04/27 12:53:26;;;;;;;;;;;18.20;46.70;;;;;;4997702;28;19984;-74
2023/04/27 12:55:54;;;;;;;;;;;18.20;46.90;;;;;;4980729;28;19905;-74
2023/04/27 12:58:20;;;;;;;;;;;18.20;47.00;;;;;;4985068;28;20302;-74
2023/04/27 13:00:48;;;;;;;;;;;18.40;46.20;;;;;;4985318;28;19905;-74
2023/04/27 13:03:20;;;;;;;;;;;18.50;46.20;;;;;;5001612;28;19912;-74
2023/04/27 13:05:47;;;;;;;;;;;18.50;46.00;;;;;;4995101;28;20020;-74
2023/04/27 13:08:13;;;;;;;;;;;18.40;47.30;;;;;;4982241;28;20319;-74
2023/04/27 13:10:40;;;;;;;;;;;18.60;47.10;;;;;;5001736;28;19956;-75
2023/04/27 13:13:06;;;;;;;;;;;18.50;46.90;;;;;;4982166;28;19963;-74
2023/04/27 13:15:39;;;;;;;;;;;18.50;46.90;;;;;;4979064;28;19954;-75
2023/04/27 13:18:05;;;;;;;;;;;18.00;46.50;;;;;;4981401;28;20028;-74
2023/04/27 13:20:35;;;;;;;;;;;17.70;48.10;;;;;;4999054;28;19912;-74
2023/04/27 13:23:01;;;;;;;;;;;17.60;49.30;;;;;;4998288;28;19905;-75
2023/04/27 13:25:29;;;;;;;;;;;17.80;49.10;;;;;;4997467;28;19915;-75
2023/04/27 13:27:56;;;;;;;;;;;17.90;48.80;;;;;;4998447;28;19988;-74
2023/04/27 13:30:22;;;;;;;;;;;18.00;48.70;;;;;;5000492;28;19918;-75
2023/04/27 13:32:51;;;;;;;;;;;18.30;49.20;;;;;;4996618;28;19913;-75
2023/04/27 13:35:18;;;;;;;;;;;18.50;48.90;;;;;;5000308;28;19906;-75
2023/04/27 13:37:44;;;;;;;;;;;18.90;48.30;;;;;;4995482;28;19913;-75
2023/04/27 13:40:11;;;;;;;;;;;18.80;47.70;;;;;;4998837;28;20370;-75
2023/04/27 13:42:38;;;;;;;;;;;18.50;49.10;;;;;;4982836;28;19905;-74
2023/04/27 13:45:05;;;;;;;;;;;18.60;49.30;;;;;;4990317;28;19914;-74
2023/04/27 13:47:36;;;;;;;;;;;18.30;48.20;;;;;;4983151;28;19952;-74
2023/04/27 13:50:06;;;;;;;;;;;18.50;49.50;;;;;;4998709;28;19909;-74
2023/04/27 13:52:31;;;;;;;;;;;18.50;50.30;;;;;;4997597;28;20825;-74
2023/04/27 13:54:58;;;;;;;;;;;18.50;49.90;;;;;;4997539;28;19909;-74
2023/04/27 13:57:24;;;;;;;;;;;18.40;49.50;;;;;;5000738;28;20685;-76
2023/04/27 13:59:50;;;;;;;;;;;18.00;50.10;;;;;;4981147;28;19914;-76
2023/04/27 14:02:17;;;;;;;;;;;17.90;54.20;;;;;;4990040;28;19905;-75
2023/04/27 14:04:42;;;;;;;;;;;18.10;52.20;;;;;;4982518;28;19955;-75
2023/04/27 14:07:10;;;;;;;;;;;18.30;51.90;;;;;;4999245;28;19910;-75
2023/04/27 14:09:35;;;;;;;;;;;18.00;49.60;;;;;;4982017;28;19936;-76
2023/04/27 14:12:01;;;;;;;;;;;17.90;50.20;;;;;;4980969;28;19956;-75
2023/04/27 14:14:28;;;;;;;;;;;17.60;50.10;;;;;;4978649;28;20000;-76
2023/04/27 14:16:56;;;;;;;;;;;16.70;51.30;;;;;;4985078;28;19910;-75
2023/04/27 14:19:33;;;;;;;;;;;16.60;52.90;;;;;;4998891;28;20012;-77
2023/04/27 14:22:01;;;;;;;;;;;16.90;53.30;;;;;;4998656;28;19905;-77
2023/04/27 14:24:27;;;;;;;;;;;17.10;52.40;;;;;;4981542;28;19909;-75